| time (UTC) | temp C | wind direction | speed KPH | gust KPH | rain 1hr cm | rain 24hr cm | rain mn cm | humidity % | barometer mb |
| 20260508033014 | 10 | 106 | 3.2 | 6.4 | 0.03 | 0.03 | 0.03 | 89 | 1014.7 |
| 20260508031512 | 10 | 82 | 3.2 | 6.4 | 0.03 | 0.03 | 0.03 | 88 | 1014.8 |
| 20260508030014 | 10 | 138 | 3.2 | 11.3 | 0.00 | 0.00 | 0.00 | 88 | 1014.9 |
| 20260508024512 | 10 | 116 | 3.2 | 11.3 | 0.00 | 0.00 | 0.00 | 88 | 1014.9 |
| 20260508021510 | 10 | 120 | 6.4 | 12.9 | 0.00 | 0.00 | 0.00 | 87 | 1014.9 |
| 20260508020013 | 10 | 120 | 4.8 | 14.5 | 0.00 | 0.00 | 0.00 | 86 | 1014.9 |
| 20260508014512 | 10 | 146 | 3.2 | 9.7 | 0.00 | 0.00 | 0.00 | 86 | 1015.1 |
| 20260508013013 | 10 | 109 | 3.2 | 12.9 | 0.00 | 0.00 | 0.00 | 85 | 1015.2 |
| 20260508004511 | 10 | 119 | 4.8 | 12.9 | 0.00 | 0.00 | 0.00 | 84 | 1015.2 |
| 20260508003012 | 10 | 109 | 3.2 | 12.9 | 0.00 | 0.00 | 0.00 | 84 | 1015.3 |
| 20260508001513 | 10 | 103 | 4.8 | 11.3 | 0.00 | 0.00 | 0.00 | 84 | 1015.3 |
| 20260508000023 | 10 | 118 | 1.6 | 11.3 | 0.00 | 0.00 | 0.00 | 84 | 1015.4 |
| 20260507234512 | 11 | 191 | 3.2 | 11.3 | 0.00 | 0.00 | 0.00 | 83 | 1015.5 |
| 20260507233013 | 11 | 180 | 3.2 | 11.3 | 0.00 | 0.00 | 0.00 | 83 | 1015.4 |
| 20260507231512 | 11 | 148 | 4.8 | 11.3 | 0.00 | 0.00 | 0.00 | 82 | 1015.3 |
| 20260507230013 | 11 | 117 | 6.4 | 14.5 | 0.00 | 0.00 | 0.00 | 81 | 1015.3 |
| 20260507224511 | 11 | 155 | 4.8 | 11.3 | 0.00 | 0.00 | 0.00 | 79 | 1015.4 |
| 20260507223019 | 11 | 217 | 4.8 | 12.9 | 0.00 | 0.00 | 0.00 | 77 | 1015.4 |
| 20260507221512 | 11 | 113 | 3.2 | 11.3 | 0.00 | 0.00 | 0.00 | 76 | 1015.5 |
| 20260507220013 | 11 | 138 | 4.8 | 12.9 | 0.00 | 0.00 | 0.00 | 75 | 1015.5 |
| 20260507214512 | 11 | 123 | 4.8 | 14.5 | 0.00 | 0.00 | 0.00 | 73 | 1015.6 |
| 20260507213012 | 11 | 111 | 4.8 | 16.1 | 0.00 | 0.00 | 0.00 | 72 | 1015.6 |
| 20260507211514 | 11 | 161 | 3.2 | 12.9 | 0.00 | 0.00 | 0.00 | 69 | 1015.6 |
| 20260507205211 | 11 | 130 | 3.2 | 8.0 | 0.00 | 0.00 | 0.00 | 70 | 1015.5 |
| 20260507200713 | 11 | 122 | 1.6 | 4.8 | 0.00 | 0.00 | 0.00 | 68 | 1015.0 |
| 20260507195211 | 11 | 126 | 1.6 | 6.4 | 0.00 | 0.00 | 0.00 | 67 | 1014.8 |
| 20260507193713 | 11 | 142 | 0.0 | 3.2 | 0.00 | 0.00 | 0.00 | 68 | 1014.8 |
| 20260507192211 | 12 | 126 | 0.0 | 4.8 | 0.00 | 0.00 | 0.00 | 69 | 1014.8 |
| 20260507190713 | 12 | 173 | 4.8 | 9.7 | 0.00 | 0.00 | 0.00 | 66 | 1014.8 |
| 20260507185211 | 12 | 181 | 6.4 | 11.3 | 0.00 | 0.00 | 0.00 | 66 | 1014.8 |
| 20260507183712 | 12 | 203 | 4.8 | 9.7 | 0.00 | 0.00 | 0.00 | 66 | 1014.8 |
| 20260507182213 | 13 | 196 | 6.4 | 12.9 | 0.00 | 0.00 | 0.00 | 64 | 1014.7 |
| 20260507180712 | 13 | 184 | 4.8 | 11.3 | 0.00 | 0.00 | 0.00 | 61 | 1014.6 |
| 20260507175211 | 13 | 167 | 8.0 | 14.5 | 0.00 | 0.00 | 0.00 | 62 | 1014.6 |
| 20260507173713 | 14 | 198 | 9.7 | 16.1 | 0.00 | 0.00 | 0.00 | 61 | 1014.5 |
| 20260507172212 | 14 | 185 | 8.0 | 19.3 | 0.00 | 0.00 | 0.00 | 62 | 1014.5 |
| 20260507170712 | 15 | 187 | 8.0 | 16.1 | 0.00 | 0.00 | 0.00 | 59 | 1014.5 |
| 20260507170025 | 15 | 191 | 11.3 | 19.3 | 0.00 | 0.00 | 0.00 | 58 | 1014.5 |
| 20260507164510 | 15 | 207 | 12.9 | 20.9 | 0.00 | 0.00 | 0.00 | 54 | 1014.5 |
| 20260507163022 | -17 | 0.0 | 0.0 | 0.00 | 0.00 | 0.00 | |||
| 20260507161520 | -17 | 0.0 | 0.0 | 0.00 | 0.00 | 0.00 | |||
| 20260507160032 | 15 | 198 | 12.9 | 22.5 | 0.00 | 0.00 | 0.00 | 61 | 1014.6 |
| 20260507154539 | 15 | 169 | 8.0 | 16.1 | 0.00 | 0.00 | 0.00 | 64 | 1014.6 |
| 20260507153027 | 15 | 164 | 8.0 | 16.1 | 0.00 | 0.00 | 0.00 | 64 | 1014.7 |
| 20260507151646 | 15 | 159 | 11.3 | 20.9 | 0.00 | 0.00 | 0.00 | 63 | 1014.7 |
| 20260507144738 | 16 | 173 | 8.0 | 17.7 | 0.00 | 0.00 | 0.00 | 64 | 1014.8 |
| 20260507141643 | 16 | 179 | 12.9 | 24.1 | 0.00 | 0.00 | 0.00 | 64 | 1015.1 |
| 20260507140029 | 16 | 214 | 12.9 | 22.5 | 0.00 | 0.00 | 0.00 | 61 | 1015.0 |
| 20260507134515 | 15 | 185 | 14.5 | 22.5 | 0.00 | 0.00 | 0.00 | 62 | 1015.0 |
| 20260507133013 | 16 | 177 | 9.7 | 25.7 | 0.00 | 0.00 | 0.00 | 60 | 1015.1 |
| 20260507130029 | 16 | 195 | 9.7 | 17.7 | 0.00 | 0.00 | 0.00 | 61 | 1015.2 |
| 20260507124511 | 16 | 174 | 12.9 | 19.3 | 0.00 | 0.00 | 0.00 | 57 | 1015.3 |
| 20260507123013 | 16 | 188 | 9.7 | 22.5 | 0.00 | 0.00 | 0.00 | 56 | 1015.4 |
| 20260507121620 | 16 | 196 | 12.9 | 22.5 | 0.00 | 0.00 | 0.00 | 59 | 1015.4 |
| 20260507120018 | 14 | 190 | 11.3 | 17.7 | 0.00 | 0.00 | 0.00 | 65 | 1015.4 |
| 20260507114514 | 15 | 209 | 9.7 | 20.9 | 0.00 | 0.00 | 0.00 | 66 | 1015.5 |
| 20260507113013 | 15 | 181 | 14.5 | 27.4 | 0.00 | 0.00 | 0.00 | 65 | 1015.5 |
| 20260507111511 | 14 | 178 | 11.3 | 22.5 | 0.00 | 0.00 | 0.00 | 67 | 1015.5 |
| 20260507104546 | 15 | 212 | 14.5 | 24.1 | 0.00 | 0.00 | 0.00 | 68 | 1015.7 |
| 20260507101545 | 13 | 191 | 8.0 | 16.1 | 0.00 | 0.00 | 0.00 | 67 | 1015.6 |
| 20260507100011 | 14 | 157 | 8.0 | 19.3 | 0.00 | 0.00 | 0.00 | 70 | 1015.6 |
| 20260507094513 | 13 | 207 | 8.0 | 27.4 | 0.00 | 0.00 | 0.00 | 70 | 1015.6 |
| 20260507093012 | 13 | 174 | 6.4 | 16.1 | 0.00 | 0.00 | 0.00 | 73 | 1015.6 |
| 20260507091514 | 13 | 178 | 6.4 | 16.1 | 0.00 | 0.00 | 0.00 | 74 | 1015.7 |
| 20260507090057 | 13 | 201 | 8.0 | 16.1 | 0.00 | 0.00 | 0.00 | 76 | 1015.7 |
| 20260507083042 | 12 | 180 | 4.8 | 12.9 | 0.00 | 0.00 | 0.00 | 81 | 1015.7 |
| 20260507080013 | 11 | 163 | 3.2 | 12.9 | 0.00 | 0.00 | 0.00 | 82 | 1015.8 |
| 20260507074517 | 11 | 136 | 3.2 | 9.7 | 0.00 | 0.00 | 0.00 | 82 | 1015.6 |
| 20260507073027 | 10 | 111 | 4.8 | 11.3 | 0.00 | 0.00 | 0.00 | 82 | 1015.6 |
| 20260507071517 | 10 | 138 | 3.2 | 11.3 | 0.00 | 0.00 | 0.00 | 83 | 1015.6 |
| 20260507070027 | 10 | 122 | 3.2 | 9.7 | 0.00 | 0.00 | 0.00 | 84 | 1015.5 |
| 20260507064523 | 9 | 113 | 3.2 | 4.8 | 0.00 | 0.00 | 0.00 | 84 | 1015.5 |
| 20260507063012 | 8 | 232 | 1.6 | 3.2 | 0.00 | 0.00 | 0.00 | 84 | 1015.6 |
| 20260507061512 | 8 | 304 | 1.6 | 6.4 | 0.00 | 0.00 | 0.00 | 85 | 1015.6 |
| 20260507060018 | 7 | 127 | 3.2 | 11.3 | 0.00 | 0.00 | 0.00 | 85 | 1015.4 |
| 20260507054511 | 7 | 111 | 3.2 | 9.7 | 0.00 | 0.00 | 0.00 | 84 | 1015.3 |
| 20260507053022 | 7 | 112 | 1.6 | 9.7 | 0.00 | 0.00 | 0.00 | 83 | 1015.2 |
| 20260507051511 | 7 | 107 | 3.2 | 11.3 | 0.00 | 0.00 | 0.00 | 83 | 1015.0 |
| 20260507050031 | 7 | 98 | 3.2 | 9.7 | 0.00 | 0.00 | 0.00 | 82 | 1015.0 |
| 20260507044513 | 7 | 118 | 4.8 | 12.9 | 0.00 | 0.00 | 0.00 | 82 | 1014.9 |
| 20260507043012 | 7 | 121 | 6.4 | 11.3 | 0.00 | 0.00 | 0.00 | 81 | 1014.9 |
| 20260507041512 | 7 | 118 | 4.8 | 9.7 | 0.00 | 0.00 | 0.00 | 81 | 1014.9 |
| 20260507040013 | 7 | 121 | 4.8 | 11.3 | 0.00 | 0.00 | 0.00 | 81 | 1015.0 |